sensor_id;sensor_type;location;lat;lon;timestamp;P1;durP1;ratioP1;P2;durP2;ratioP2
32826;SDS011;51059;42.058;27.986;2023-07-24T17:54:16;11.25;;;7.53;;
32826;SDS011;51059;42.058;27.986;2023-07-24T17:56:42;11.15;;;8.48;;
32826;SDS011;51059;42.058;27.986;2023-07-24T17:59:08;14.15;;;10.88;;
32826;SDS011;51059;42.058;27.986;2023-07-24T18:01:33;20.13;;;17.35;;
32826;SDS011;51059;42.058;27.986;2023-07-24T18:04:01;13.45;;;11.00;;
32826;SDS011;51059;42.058;27.986;2023-07-24T18:06:26;16.38;;;14.13;;
32826;SDS011;51059;42.058;27.986;2023-07-24T18:08:52;14.07;;;10.10;;
32826;SDS011;51059;42.058;27.986;2023-07-24T18:11:18;8.20;;;7.25;;
32826;SDS011;51059;42.058;27.986;2023-07-24T18:13:43;11.02;;;9.93;;
32826;SDS011;51059;42.058;27.986;2023-07-24T18:16:09;8.95;;;7.05;;
32826;SDS011;51059;42.058;27.986;2023-07-24T18:18:35;8.35;;;7.10;;
32826;SDS011;51059;42.058;27.986;2023-07-24T18:21:01;8.38;;;7.50;;
32826;SDS011;51059;42.058;27.986;2023-07-24T18:23:30;17.35;;;12.20;;
32826;SDS011;51059;42.058;27.986;2023-07-24T18:25:56;15.27;;;13.55;;
32826;SDS011;51059;42.058;27.986;2023-07-24T18:28:21;15.10;;;12.30;;
32826;SDS011;51059;42.058;27.986;2023-07-24T18:30:47;24.00;;;17.38;;
32826;SDS011;51059;42.058;27.986;2023-07-24T20:29:09;10.65;;;7.03;;
32826;SDS011;51059;42.058;27.986;2023-07-24T20:31:35;9.73;;;6.63;;
32826;SDS011;51059;42.058;27.986;2023-07-24T20:34:00;7.32;;;5.97;;
32826;SDS011;51059;42.058;27.986;2023-07-24T20:51:58;7.03;;;6.30;;
32826;SDS011;51059;42.058;27.986;2023-07-24T20:54:23;8.73;;;6.15;;
32826;SDS011;51059;42.058;27.986;2023-07-24T20:56:51;8.63;;;6.50;;
32826;SDS011;51059;42.058;27.986;2023-07-24T20:59:17;8.10;;;5.88;;
32826;SDS011;51059;42.058;27.986;2023-07-24T21:01:43;10.43;;;6.43;;
32826;SDS011;51059;42.058;27.986;2023-07-24T21:04:09;7.25;;;6.20;;
32826;SDS011;51059;42.058;27.986;2023-07-24T21:06:35;8.75;;;6.22;;
32826;SDS011;51059;42.058;27.986;2023-07-24T21:09:00;6.45;;;5.85;;
32826;SDS011;51059;42.058;27.986;2023-07-24T21:11:26;10.13;;;6.60;;
32826;SDS011;51059;42.058;27.986;2023-07-24T21:13:52;9.63;;;6.20;;
32826;SDS011;51059;42.058;27.986;2023-07-24T21:16:18;6.28;;;5.68;;
32826;SDS011;51059;42.058;27.986;2023-07-24T21:18:44;9.45;;;6.15;;
32826;SDS011;51059;42.058;27.986;2023-07-24T21:21:11;7.20;;;6.07;;
32826;SDS011;51059;42.058;27.986;2023-07-24T21:23:38;10.13;;;6.30;;
32826;SDS011;51059;42.058;27.986;2023-07-24T21:26:04;6.05;;;5.53;;
32826;SDS011;51059;42.058;27.986;2023-07-24T21:28:30;7.45;;;6.18;;
32826;SDS011;51059;42.058;27.986;2023-07-24T21:30:56;11.32;;;6.72;;
32826;SDS011;51059;42.058;27.986;2023-07-24T21:33:31;7.50;;;5.40;;
32826;SDS011;51059;42.058;27.986;2023-07-24T21:35:58;7.40;;;6.20;;
32826;SDS011;51059;42.058;27.986;2023-07-24T21:38:25;6.45;;;5.65;;
32826;SDS011;51059;42.058;27.986;2023-07-24T21:40:51;8.68;;;6.80;;
32826;SDS011;51059;42.058;27.986;2023-07-24T21:43:17;10.25;;;6.78;;
32826;SDS011;51059;42.058;27.986;2023-07-24T21:45:44;7.05;;;5.95;;
32826;SDS011;51059;42.058;27.986;2023-07-24T21:48:10;9.43;;;6.25;;
32826;SDS011;51059;42.058;27.986;2023-07-24T21:50:37;14.00;;;6.93;;
32826;SDS011;51059;42.058;27.986;2023-07-24T21:53:02;7.72;;;5.85;;
32826;SDS011;51059;42.058;27.986;2023-07-24T21:55:32;8.30;;;5.95;;
32826;SDS011;51059;42.058;27.986;2023-07-24T21:57:58;6.43;;;5.72;;
32826;SDS011;51059;42.058;27.986;2023-07-24T22:00:24;7.57;;;5.53;;
32826;SDS011;51059;42.058;27.986;2023-07-24T22:02:50;7.18;;;5.70;;
32826;SDS011;51059;42.058;27.986;2023-07-24T22:05:16;9.07;;;6.20;;
32826;SDS011;51059;42.058;27.986;2023-07-24T22:07:43;11.15;;;6.07;;
32826;SDS011;51059;42.058;27.986;2023-07-24T22:10:08;9.95;;;6.15;;
32826;SDS011;51059;42.058;27.986;2023-07-24T22:12:35;7.70;;;5.60;;
32826;SDS011;51059;42.058;27.986;2023-07-24T22:15:01;6.70;;;6.00;;
32826;SDS011;51059;42.058;27.986;2023-07-24T22:17:28;6.20;;;5.60;;
32826;SDS011;51059;42.058;27.986;2023-07-24T22:19:57;9.13;;;6.32;;
32826;SDS011;51059;42.058;27.986;2023-07-24T22:22:23;10.05;;;6.50;;
32826;SDS011;51059;42.058;27.986;2023-07-24T22:24:49;11.15;;;6.43;;
32826;SDS011;51059;42.058;27.986;2023-07-24T22:27:17;11.35;;;6.25;;
32826;SDS011;51059;42.058;27.986;2023-07-24T22:29:44;11.93;;;6.40;;
32826;SDS011;51059;42.058;27.986;2023-07-24T22:32:10;8.15;;;5.90;;
32826;SDS011;51059;42.058;27.986;2023-07-24T22:34:35;8.80;;;6.65;;
32826;SDS011;51059;42.058;27.986;2023-07-24T22:37:01;10.00;;;6.38;;
32826;SDS011;51059;42.058;27.986;2023-07-24T22:39:27;8.88;;;6.35;;
32826;SDS011;51059;42.058;27.986;2023-07-24T22:41:53;8.55;;;6.78;;
32826;SDS011;51059;42.058;27.986;2023-07-24T22:44:21;7.97;;;5.88;;
32826;SDS011;51059;42.058;27.986;2023-07-24T22:46:47;7.78;;;6.07;;
32826;SDS011;51059;42.058;27.986;2023-07-24T22:49:13;9.95;;;7.00;;
32826;SDS011;51059;42.058;27.986;2023-07-24T22:51:39;7.03;;;6.10;;
32826;SDS011;51059;42.058;27.986;2023-07-24T22:54:05;6.93;;;5.88;;
32826;SDS011;51059;42.058;27.986;2023-07-24T22:56:31;10.02;;;6.22;;
32826;SDS011;51059;42.058;27.986;2023-07-24T23:01:32;9.68;;;6.07;;
32826;SDS011;51059;42.058;27.986;2023-07-24T23:03:57;6.95;;;5.63;;
32826;SDS011;51059;42.058;27.986;2023-07-24T23:06:23;9.68;;;5.72;;
32826;SDS011;51059;42.058;27.986;2023-07-24T23:08:49;7.65;;;6.03;;
32826;SDS011;51059;42.058;27.986;2023-07-24T23:11:15;7.70;;;5.68;;
32826;SDS011;51059;42.058;27.986;2023-07-24T23:13:42;8.93;;;5.63;;
32826;SDS011;51059;42.058;27.986;2023-07-24T23:16:08;8.05;;;5.80;;
32826;SDS011;51059;42.058;27.986;2023-07-24T23:18:34;7.60;;;5.75;;
32826;SDS011;51059;42.058;27.986;2023-07-24T23:21:04;7.65;;;5.70;;
32826;SDS011;51059;42.058;27.986;2023-07-24T23:23:30;6.22;;;5.10;;
32826;SDS011;51059;42.058;27.986;2023-07-24T23:26:00;6.03;;;5.35;;
32826;SDS011;51059;42.058;27.986;2023-07-24T23:28:28;7.40;;;5.70;;
32826;SDS011;51059;42.058;27.986;2023-07-24T23:30:54;7.28;;;5.40;;
32826;SDS011;51059;42.058;27.986;2023-07-24T23:33:21;6.57;;;5.43;;
32826;SDS011;51059;42.058;27.986;2023-07-24T23:35:47;7.50;;;6.00;;
32826;SDS011;51059;42.058;27.986;2023-07-24T23:38:13;7.05;;;5.53;;
32826;SDS011;51059;42.058;27.986;2023-07-24T23:40:39;6.72;;;5.10;;
32826;SDS011;51059;42.058;27.986;2023-07-24T23:43:05;6.35;;;5.53;;
32826;SDS011;51059;42.058;27.986;2023-07-24T23:45:34;8.30;;;5.07;;
32826;SDS011;51059;42.058;27.986;2023-07-24T23:48:00;8.35;;;5.45;;
32826;SDS011;51059;42.058;27.986;2023-07-24T23:50:26;7.22;;;5.35;;
32826;SDS011;51059;42.058;27.986;2023-07-24T23:52:52;8.20;;;5.45;;
32826;SDS011;51059;42.058;27.986;2023-07-24T23:55:18;7.38;;;5.55;;
32826;SDS011;51059;42.058;27.986;2023-07-24T23:57:44;7.95;;;5.75;;
